Time;durP1;ratioP1;P1;durP2;ratioP2;P2;SDS_P1;SDS_P2;PMS_P1;PMS_P2;Temp;Humidity;BMP_temperature;BMP_pressure;BME280_temperature;BME280_humidity;BME280_pressure;Samples;Min_cycle;Max_cycle;Signal;HPM_P1;HPM_P2
2021/05/17 00:01:31;;;;;;;;;;;;;;;21.62;45.38;99518.13;2206588;39;115580;-54
2021/05/17 00:03:03;;;;;;;;;;;;;;;21.60;45.14;99514.84;2211539;39;115612;-53
2021/05/17 00:04:36;;;;;;;;;;;;;;;21.60;45.31;99520.47;2209641;39;113988;-53
2021/05/17 00:06:09;;;;;;;;;;;;;;;21.57;45.25;99515.56;2209673;39;113734;-53
2021/05/17 00:07:46;;;;;;;;;;;;;;;21.56;45.57;99523.16;2208796;39;113693;-54
2021/05/17 00:09:24;;;;;;;;;;;;;;;21.55;45.45;99521.53;2208216;39;113975;-53
2021/05/17 00:10:57;;;;;;;;;;;;;;;21.54;45.40;99525.50;2207541;39;114151;-54
2021/05/17 00:12:31;;;;;;;;;;;;;;;21.53;45.29;99525.88;2205541;39;113822;-53
2021/05/17 00:14:04;;;;;;;;;;;;;;;21.51;45.45;99522.56;2210387;39;113956;-53
2021/05/17 00:15:38;;;;;;;;;;;;;;;21.48;45.74;99526.91;2211233;39;113757;-53
2021/05/17 00:17:10;;;;;;;;;;;;;;;21.49;45.43;99528.53;2208060;39;114337;-54
2021/05/17 00:18:43;;;;;;;;;;;;;;;21.47;45.45;99533.69;2210120;39;113714;-53
2021/05/17 00:20:16;;;;;;;;;;;;;;;21.46;45.46;99540.47;2214879;39;113674;-54
2021/05/17 00:21:48;;;;;;;;;;;;;;;21.44;45.56;99534.38;2207652;39;113962;-54
2021/05/17 00:23:20;;;;;;;;;;;;;;;21.43;45.81;99540.38;2214954;39;114046;-56
2021/05/17 00:24:54;;;;;;;;;;;;;;;21.43;45.76;99537.56;2206476;39;113639;-54
2021/05/17 00:26:27;;;;;;;;;;;;;;;21.41;45.73;99543.50;2208546;39;114931;-53
2021/05/17 00:27:59;;;;;;;;;;;;;;;21.40;45.72;99539.06;2210121;39;115328;-53
2021/05/17 00:29:31;;;;;;;;;;;;;;;21.39;45.72;99543.06;2208138;39;115396;-53
2021/05/17 00:31:03;;;;;;;;;;;;;;;21.37;45.60;99551.00;2210348;39;116006;-54
2021/05/17 00:32:35;;;;;;;;;;;;;;;21.39;45.75;99545.88;2216580;39;114385;-53
2021/05/17 00:34:09;;;;;;;;;;;;;;;21.35;45.69;99546.91;2209681;39;114726;-53
2021/05/17 00:35:41;;;;;;;;;;;;;;;21.38;45.75;99557.44;2215128;39;114548;-54
2021/05/17 00:37:15;;;;;;;;;;;;;;;21.35;45.71;99556.13;2206431;39;113767;-54
2021/05/17 00:38:48;;;;;;;;;;;;;;;21.33;46.00;99561.28;2211796;39;114045;-54
2021/05/17 00:40:21;;;;;;;;;;;;;;;21.33;45.80;99555.69;2209512;39;115168;-55
2021/05/17 00:41:53;;;;;;;;;;;;;;;21.34;45.75;99557.31;2205652;39;114107;-54
2021/05/17 00:43:28;;;;;;;;;;;;;;;21.31;45.89;99552.38;2207713;39;114946;-54
2021/05/17 00:45:00;;;;;;;;;;;;;;;21.32;45.83;99559.66;2202511;39;114794;-54
2021/05/17 00:46:33;;;;;;;;;;;;;;;21.30;46.21;99562.78;2216545;39;114847;-54
2021/05/17 00:48:05;;;;;;;;;;;;;;;21.30;46.15;99559.19;2208203;39;115539;-54
2021/05/17 00:49:39;;;;;;;;;;;;;;;21.29;46.17;99563.16;2210662;39;115620;-54
2021/05/17 00:51:11;;;;;;;;;;;;;;;21.30;45.93;99559.19;2212726;39;114583;-54
2021/05/17 00:52:44;;;;;;;;;;;;;;;21.27;46.21;99557.88;2212643;39;115807;-54
2021/05/17 00:54:16;;;;;;;;;;;;;;;21.27;46.09;99559.88;2215238;39;115616;-54
2021/05/17 00:55:48;;;;;;;;;;;;;;;21.24;46.40;99561.41;2212909;39;115597;-54
2021/05/17 00:57:21;;;;;;;;;;;;;;;21.25;46.29;99567.84;2208172;39;115673;-54
2021/05/17 00:58:54;;;;;;;;;;;;;;;21.24;46.27;99558.59;2210999;39;114693;-53
2021/05/17 01:00:26;;;;;;;;;;;;;;;21.23;46.04;99572.97;2214698;39;116038;-54
2021/05/17 01:01:59;;;;;;;;;;;;;;;21.23;46.44;99570.16;2210053;39;115278;-53
2021/05/17 01:03:31;;;;;;;;;;;;;;;21.22;46.31;99563.72;2207146;39;115447;-54
2021/05/17 01:05:04;;;;;;;;;;;;;;;21.21;46.33;99570.50;2211141;39;115593;-54
2021/05/17 01:08:13;;;;;;;;;;;;;;;21.21;46.20;99573.31;2209589;39;114533;-55
2021/05/17 01:09:46;;;;;;;;;;;;;;;21.21;46.32;99575.31;2204813;39;113633;-54
2021/05/17 01:11:19;;;;;;;;;;;;;;;21.19;46.41;99577.63;2208756;39;114004;-53
2021/05/17 01:12:51;;;;;;;;;;;;;;;21.20;46.31;99576.47;2206313;39;115364;-54
2021/05/17 01:14:23;;;;;;;;;;;;;;;21.17;46.55;99575.16;2211784;39;114028;-54
2021/05/17 01:15:57;;;;;;;;;;;;;;;21.19;46.31;99583.25;2209292;39;113593;-53
2021/05/17 01:17:29;;;;;;;;;;;;;;;21.18;46.82;99579.63;2213399;39;113642;-54
2021/05/17 01:19:01;;;;;;;;;;;;;;;21.17;46.48;99579.97;2210807;39;113999;-54
2021/05/17 01:20:34;;;;;;;;;;;;;;;21.15;46.72;99582.31;2210642;39;114233;-54
2021/05/17 01:22:10;;;;;;;;;;;;;;;21.15;46.38;99585.94;2213517;39;114102;-54
2021/05/17 01:23:50;;;;;;;;;;;;;;;21.15;46.33;99588.75;2216620;39;113851;-54
2021/05/17 01:25:23;;;;;;;;;;;;;;;21.13;46.75;99585.44;2208480;39;113860;-54
2021/05/17 01:26:55;;;;;;;;;;;;;;;21.13;46.57;99590.25;2205137;39;114048;-54
2021/05/17 01:28:30;;;;;;;;;;;;;;;21.14;46.53;99594.72;2209018;39;114034;-54
2021/05/17 01:30:04;;;;;;;;;;;;;;;21.13;46.74;99587.44;2212179;39;113808;-54
2021/05/17 01:31:36;;;;;;;;;;;;;;;21.11;46.50;99595.38;2211212;39;114829;-54
2021/05/17 01:33:09;;;;;;;;;;;;;;;21.10;46.55;99600.16;2209372;39;114806;-54
2021/05/17 01:34:42;;;;;;;;;;;;;;;21.10;46.35;99600.16;2217111;39;114840;-53
2021/05/17 01:36:16;;;;;;;;;;;;;;;21.09;46.47;99600.50;2210249;39;115171;-54
2021/05/17 01:37:49;;;;;;;;;;;;;;;21.07;46.78;99605.66;2208264;39;115605;-54
2021/05/17 01:39:24;;;;;;;;;;;;;;;21.09;46.93;99608.94;2203127;39;114710;-54
2021/05/17 01:40:57;;;;;;;;;;;;;;;21.05;46.95;99607.97;2207405;39;114803;-55
2021/05/17 01:42:29;;;;;;;;;;;;;;;21.05;46.96;99606.00;2212083;39;114879;-54
2021/05/17 01:44:01;;;;;;;;;;;;;;;21.06;47.16;99606.81;2216443;39;114414;-54
2021/05/17 01:45:34;;;;;;;;;;;;;;;21.05;46.87;99610.78;2216372;39;114721;-54
2021/05/17 01:47:06;;;;;;;;;;;;;;;21.04;46.91;99612.78;2215888;39;114883;-54
2021/05/17 01:48:39;;;;;;;;;;;;;;;21.03;47.00;99615.94;2216939;39;114721;-57
2021/05/17 01:50:12;;;;;;;;;;;;;;;21.02;47.04;99629.16;2209901;39;115229;-54
2021/05/17 01:51:45;;;;;;;;;;;;;;;21.03;46.73;99627.19;2214205;39;113827;-54
2021/05/17 01:53:17;;;;;;;;;;;;;;;21.02;46.68;99628.34;2212036;39;114029;-54
2021/05/17 01:54:51;;;;;;;;;;;;;;;21.00;46.83;99625.84;2212613;39;116491;-55
2021/05/17 01:56:23;;;;;;;;;;;;;;;21.01;46.72;99635.94;2213019;39;114592;-54
2021/05/17 01:57:58;;;;;;;;;;;;;;;20.99;47.22;99640.22;2217029;39;115600;-54
2021/05/17 01:59:31;;;;;;;;;;;;;;;20.98;47.05;99639.44;2216587;39;115386;-54
2021/05/17 02:01:05;;;;;;;;;;;;;;;20.98;47.00;99641.41;2217106;39;116160;-54
2021/05/17 02:02:37;;;;;;;;;;;;;;;20.99;47.09;99651.47;2216937;39;116180;-54
2021/05/17 02:04:09;;;;;;;;;;;;;;;20.97;47.29;99643.41;2216958;39;114501;-54
2021/05/17 02:05:46;;;;;;;;;;;;;;;20.98;47.13;99650.66;2216331;39;115589;-54
2021/05/17 02:07:18;;;;;;;;;;;;;;;20.96;47.42;99660.59;2209853;39;115321;-54
2021/05/17 02:08:52;;;;;;;;;;;;;;;20.98;47.00;99659.09;2215525;39;115554;-54
2021/05/17 02:10:24;;;;;;;;;;;;;;;20.96;47.06;99660.59;2216214;39;115118;-54
2021/05/17 02:11:57;;;;;;;;;;;;;;;20.95;46.84;99665.38;2214615;39;115745;-53
2021/05/17 02:13:29;;;;;;;;;;;;;;;20.95;46.99;99668.19;2213890;39;115561;-54
2021/05/17 02:15:02;;;;;;;;;;;;;;;20.92;47.01;99663.25;2216182;39;115588;-54
2021/05/17 02:16:35;;;;;;;;;;;;;;;20.91;46.84;99669.22;2207962;39;113810;-53
2021/05/17 02:18:08;;;;;;;;;;;;;;;20.89;46.58;99669.56;2212077;39;113823;-54
2021/05/17 02:19:40;;;;;;;;;;;;;;;20.91;46.75;99672.00;2217085;39;114130;-54
2021/05/17 02:21:14;;;;;;;;;;;;;;;20.91;46.59;99678.47;2204304;39;113736;-54
2021/05/17 02:22:46;;;;;;;;;;;;;;;20.90;46.61;99682.41;2213309;39;114132;-54
2021/05/17 02:24:18;;;;;;;;;;;;;;;20.90;47.02;99678.78;2215801;39;113775;-54
2021/05/17 02:25:50;;;;;;;;;;;;;;;20.88;46.75;99681.97;2209679;39;113768;-54
2021/05/17 02:27:22;;;;;;;;;;;;;;;20.89;46.72;99685.59;2203664;39;113821;-54
2021/05/17 02:28:56;;;;;;;;;;;;;;;20.87;46.93;99685.94;2203732;39;113743;-54
2021/05/17 02:30:28;;;;;;;;;;;;;;;20.85;47.04;99691.88;2208886;39;114038;-54
2021/05/17 02:32:00;;;;;;;;;;;;;;;20.85;46.77;99702.28;2210020;39;113878;-54
2021/05/17 02:33:32;;;;;;;;;;;;;;;20.82;46.71;99698.19;2214007;39;113768;-54
2021/05/17 02:35:06;;;;;;;;;;;;;;;20.84;46.88;99703.47;2210490;39;114261;-54
2021/05/17 02:36:38;;;;;;;;;;;;;;;20.83;46.72;99705.44;2214714;39;113863;-54
2021/05/17 02:38:10;;;;;;;;;;;;;;;20.84;46.77;99709.91;2215875;39;114278;-54
2021/05/17 02:39:43;;;;;;;;;;;;;;;20.83;47.02;99710.22;2207735;39;114968;-54
2021/05/17 02:41:15;;;;;;;;;;;;;;;20.83;46.96;99713.03;2208570;39;114965;-54
2021/05/17 02:42:48;;;;;;;;;;;;;;;20.81;47.33;99710.56;2209575;39;113739;-54
2021/05/17 02:44:21;;;;;;;;;;;;;;;20.82;47.10;99712.22;2203770;39;115126;-54
2021/05/17 02:45:53;;;;;;;;;;;;;;;20.82;46.75;99719.81;2214515;39;115527;-54
2021/05/17 02:47:26;;;;;;;;;;;;;;;20.80;47.08;99724.97;2216749;39;116028;-54
2021/05/17 02:48:58;;;;;;;;;;;;;;;20.80;47.50;99725.75;2216124;39;114950;-54
2021/05/17 02:50:32;;;;;;;;;;;;;;;20.80;46.89;99731.38;2212827;39;114907;-54
2021/05/17 02:52:06;;;;;;;;;;;;;;;20.79;47.35;99728.91;2213732;39;113645;-54
2021/05/17 02:53:39;;;;;;;;;;;;;;;20.80;47.36;99728.56;2215778;39;114812;-54
2021/05/17 02:55:13;;;;;;;;;;;;;;;20.79;46.81;99732.56;2208712;39;114066;-55
2021/05/17 02:56:48;;;;;;;;;;;;;;;20.79;47.22;99728.91;2209546;39;114816;-54
2021/05/17 02:58:22;;;;;;;;;;;;;;;20.76;46.79;99733.22;2219191;39;113942;-54
2021/05/17 02:59:56;;;;;;;;;;;;;;;20.76;46.88;99732.38;2206504;39;115674;-54
2021/05/17 03:01:34;;;;;;;;;;;;;;;20.75;46.90;99742.00;2207477;39;115708;-53
2021/05/17 03:04:47;;;;;;;;;;;;;;;20.74;47.55;99746.78;2209569;39;115733;-54
2021/05/17 03:06:22;;;;;;;;;;;;;;;20.73;47.18;99749.91;2214353;39;115464;-54
2021/05/17 03:07:57;;;;;;;;;;;;;;;20.73;46.92;99752.72;2217042;39;115509;-54
2021/05/17 03:09:29;;;;;;;;;;;;;;;20.72;47.14;99754.72;2204044;39;116627;-55
2021/05/17 03:11:03;;;;;;;;;;;;;;;20.73;46.92;99752.72;2205954;39;114501;-54
2021/05/17 03:12:37;;;;;;;;;;;;;;;20.71;47.18;99752.25;2214724;39;115610;-54
2021/05/17 03:14:13;;;;;;;;;;;;;;;20.71;47.47;99755.06;2205911;39;115426;-54
2021/05/17 03:15:46;;;;;;;;;;;;;;;20.70;47.28;99754.25;2211957;39;115967;-54
2021/05/17 03:17:18;;;;;;;;;;;;;;;20.69;47.18;99752.59;2209947;39;114647;-54
2021/05/17 03:18:51;;;;;;;;;;;;;;;20.70;47.15;99757.03;2207902;39;115522;-54
2021/05/17 03:20:26;;;;;;;;;;;;;;;20.70;47.47;99762.66;2210897;39;115579;-54
2021/05/17 03:21:59;;;;;;;;;;;;;;;20.70;47.45;99764.63;2213055;39;116051;-54
2021/05/17 03:25:07;;;;;;;;;;;;;;;20.68;47.31;99762.16;2204793;39;113723;-54
2021/05/17 03:26:40;;;;;;;;;;;;;;;20.68;47.18;99773.38;2208340;39;113991;-54
2021/05/17 03:28:12;;;;;;;;;;;;;;;20.68;47.45;99778.19;2208662;39;114092;-54
2021/05/17 03:29:44;;;;;;;;;;;;;;;20.67;47.68;99776.56;2210850;39;113809;-54
2021/05/17 03:31:16;;;;;;;;;;;;;;;20.67;47.48;99774.53;2210635;39;113825;-54
2021/05/17 03:32:48;;;;;;;;;;;;;;;20.68;47.45;99775.38;2209458;39;113966;-55
2021/05/17 03:34:20;;;;;;;;;;;;;;;20.66;47.57;99778.53;2209840;39;113707;-54
2021/05/17 03:35:52;;;;;;;;;;;;;;;20.67;47.79;99779.38;2210720;39;113625;-54
2021/05/17 03:37:24;;;;;;;;;;;;;;;20.65;47.81;99788.09;2210173;39;114272;-54
2021/05/17 03:38:56;;;;;;;;;;;;;;;20.66;47.67;99786.97;2212775;39;113715;-54
2021/05/17 03:40:28;;;;;;;;;;;;;;;20.66;47.44;99792.56;2210068;39;113606;-54
2021/05/17 03:42:00;;;;;;;;;;;;;;;20.65;47.61;99792.91;2208525;39;114231;-54
2021/05/17 03:43:32;;;;;;;;;;;;;;;20.64;47.83;99785.63;2210507;39;113715;-53
2021/05/17 03:45:05;;;;;;;;;;;;;;;20.64;47.76;99797.69;2204873;39;114826;-54
2021/05/17 03:46:37;;;;;;;;;;;;;;;20.63;47.43;99798.84;2206967;39;114846;-54
2021/05/17 03:48:10;;;;;;;;;;;;;;;20.64;47.47;99791.25;2210568;39;114843;-54
2021/05/17 03:49:44;;;;;;;;;;;;;;;20.60;47.76;99793.91;2211049;39;114779;-54
2021/05/17 03:51:17;;;;;;;;;;;;;;;20.62;47.63;99794.41;2211197;39;114974;-55
2021/05/17 03:52:49;;;;;;;;;;;;;;;20.62;47.90;99804.81;2208099;39;113816;-58
2021/05/17 03:54:21;;;;;;;;;;;;;;;20.61;47.85;99809.59;2210216;39;114910;-54
2021/05/17 03:55:53;;;;;;;;;;;;;;;20.62;47.59;99816.03;2210619;39;114525;-53
2021/05/17 03:57:25;;;;;;;;;;;;;;;20.60;47.55;99819.16;2209629;39;114744;-54
2021/05/17 03:58:57;;;;;;;;;;;;;;;20.62;47.94;99822.47;2209380;39;113811;-54
2021/05/17 04:00:31;;;;;;;;;;;;;;;20.61;47.92;99820.81;2210664;39;114535;-54
2021/05/17 04:02:04;;;;;;;;;;;;;;;20.59;47.73;99817.50;2210234;39;115068;-54
2021/05/17 04:03:36;;;;;;;;;;;;;;;20.59;48.04;99823.13;2208648;39;115237;-54
2021/05/17 04:12:32;;;;;;;;;;;;;;;20.60;47.84;99835.19;2210323;39;115560;-54
2021/05/17 04:13:27;;;;;;;;;;;;;;;20.58;47.92;99843.13;2207920;39;115487;-54
2021/05/17 04:14:58;;;;;;;;;;;;;;;20.58;47.66;99845.94;2206797;39;115543;-54
2021/05/17 04:16:31;;;;;;;;;;;;;;;20.59;47.67;99842.78;2209268;39;115738;-54
2021/05/17 04:18:04;;;;;;;;;;;;;;;20.58;47.48;99843.13;2214691;39;116112;-54
2021/05/17 04:19:36;;;;;;;;;;;;;;;20.56;47.97;99849.06;2213806;39;115851;-54
2021/05/17 04:21:09;;;;;;;;;;;;;;;20.54;47.74;99847.72;2216920;39;116006;-54
2021/05/17 04:22:42;;;;;;;;;;;;;;;20.54;47.92;99854.19;2214674;39;115849;-54
2021/05/17 04:24:14;;;;;;;;;;;;;;;20.55;47.52;99861.44;2205893;39;114561;-54
2021/05/17 04:25:46;;;;;;;;;;;;;;;20.53;47.55;99858.16;2211726;39;115432;-53
2021/05/17 04:27:18;;;;;;;;;;;;;;;20.53;47.81;99851.72;2210505;39;115547;-53
2021/05/17 04:28:50;;;;;;;;;;;;;;;20.51;47.83;99854.84;2214388;39;113739;-54
2021/05/17 04:30:23;;;;;;;;;;;;;;;20.52;47.93;99869.72;2208981;39;113816;-54
2021/05/17 04:31:55;;;;;;;;;;;;;;;20.51;47.82;99863.28;2204362;39;114257;-54
2021/05/17 04:33:27;;;;;;;;;;;;;;;20.50;47.80;99860.78;2214826;39;113815;-54
2021/05/17 04:35:00;;;;;;;;;;;;;;;20.51;47.62;99866.06;2217309;39;113875;-54
2021/05/17 04:36:32;;;;;;;;;;;;;;;20.50;48.15;99867.22;2207380;39;113819;-54
2021/05/17 04:38:04;;;;;;;;;;;;;;;20.50;47.72;99866.41;2212211;39;113715;-54
2021/05/17 04:39:36;;;;;;;;;;;;;;;20.48;47.83;99871.53;2209923;39;114025;-54
2021/05/17 04:41:08;;;;;;;;;;;;;;;20.49;47.71;99874.00;2207631;39;114098;-54
2021/05/17 04:42:42;;;;;;;;;;;;;;;20.47;47.72;99870.72;2214140;39;114180;-54
2021/05/17 04:44:15;;;;;;;;;;;;;;;20.49;48.09;99878.81;2215316;39;113613;-54
2021/05/17 04:45:48;;;;;;;;;;;;;;;20.48;48.33;99880.78;2209716;39;113631;-54
2021/05/17 04:47:20;;;;;;;;;;;;;;;20.52;48.46;99887.38;2213637;39;113853;-54
2021/05/17 04:48:52;;;;;;;;;;;;;;;20.56;48.81;99885.53;2208320;39;113688;-55
2021/05/17 04:50:25;;;;;;;;;;;;;;;20.59;48.36;99889.66;2216067;39;113818;-54
2021/05/17 04:51:57;;;;;;;;;;;;;;;20.62;48.51;99898.25;2216543;39;114281;-54
2021/05/17 04:53:30;;;;;;;;;;;;;;;20.64;48.54;99901.53;2209044;39;113832;-54
2021/05/17 04:55:02;;;;;;;;;;;;;;;20.67;48.49;99902.84;2212571;39;114229;-54
2021/05/17 04:56:35;;;;;;;;;;;;;;;20.70;48.70;99897.38;2216949;39;114988;-53
2021/05/17 04:58:08;;;;;;;;;;;;;;;20.72;48.37;99897.88;2215060;39;115575;-54
2021/05/17 04:59:40;;;;;;;;;;;;;;;20.76;48.40;99900.81;2215482;39;114051;-54
2021/05/17 05:01:12;;;;;;;;;;;;;;;20.79;48.62;99901.00;2214559;39;115537;-55
2021/05/17 05:02:45;;;;;;;;;;;;;;;20.83;49.05;99907.59;2208925;39;114591;-54
2021/05/17 05:04:16;;;;;;;;;;;;;;;20.86;49.04;99904.09;2206133;39;115245;-54
2021/05/17 05:05:49;;;;;;;;;;;;;;;20.89;49.14;99904.59;2210919;39;114731;-54
2021/05/17 05:07:21;;;;;;;;;;;;;;;20.93;49.00;99914.81;2212286;39;114868;-54
2021/05/17 05:08:53;;;;;;;;;;;;;;;20.97;49.23;99912.16;2205879;39;113799;-54
2021/05/17 05:10:25;;;;;;;;;;;;;;;21.00;48.72;99917.91;2210856;39;114802;-54
2021/05/17 05:11:57;;;;;;;;;;;;;;;21.04;48.96;99923.69;2218950;39;113990;-55
2021/05/17 05:13:29;;;;;;;;;;;;;;;21.08;48.94;99924.63;2216054;39;115474;-55
2021/05/17 05:15:02;;;;;;;;;;;;;;;21.12;48.67;99922.84;2216634;39;116042;-54
2021/05/17 05:16:34;;;;;;;;;;;;;;;21.18;48.51;99935.53;2213998;39;115652;-54
2021/05/17 05:18:06;;;;;;;;;;;;;;;21.22;48.62;99930.91;2213497;39;115709;-54
2021/05/17 05:19:38;;;;;;;;;;;;;;;21.27;48.28;99939.13;2215030;39;114711;-54
2021/05/17 05:21:10;;;;;;;;;;;;;;;21.31;48.38;99940.09;2216529;39;115637;-55
2021/05/17 05:22:42;;;;;;;;;;;;;;;21.37;48.21;99944.38;2216627;39;115749;-54
2021/05/17 05:24:14;;;;;;;;;;;;;;;21.41;48.01;99948.16;2213940;39;114744;-55
2021/05/17 05:33:45;;;;;;;;;;;;;;;21.70;47.39;99976.28;2217947;39;115599;-53
2021/05/17 05:35:17;;;;;;;;;;;;;;;21.73;47.50;99967.16;2217066;39;113718;-53
2021/05/17 05:36:49;;;;;;;;;;;;;;;21.78;47.24;99973.75;2208779;39;113885;-53
2021/05/17 05:38:25;;;;;;;;;;;;;;;21.81;47.07;99973.88;2212252;39;114272;-53
2021/05/17 05:39:57;;;;;;;;;;;;;;;21.84;46.80;99980.81;2214038;39;113648;-53
2021/05/17 05:41:29;;;;;;;;;;;;;;;21.88;47.27;99982.63;2207685;39;114029;-53
2021/05/17 05:43:01;;;;;;;;;;;;;;;21.92;47.25;99985.56;2208226;39;114188;-53
2021/05/17 05:44:42;;;;;;;;;;;;;;;21.96;47.01;99992.19;2213363;39;113853;-53
2021/05/17 05:46:14;;;;;;;;;;;;;;;22.00;47.04;99995.94;2208457;39;114156;-55
2021/05/17 05:47:46;;;;;;;;;;;;;;;22.03;46.47;99990.47;2215416;39;114817;-53
2021/05/17 05:49:18;;;;;;;;;;;;;;;22.08;46.60;99992.25;2216534;39;113980;-53
2021/05/17 05:50:52;;;;;;;;;;;;;;;22.11;46.31;99997.22;2215465;39;114453;-53
2021/05/17 05:52:24;;;;;;;;;;;;;;;22.14;46.26;100002.13;2208211;39;113784;-54
2021/05/17 05:53:57;;;;;;;;;;;;;;;22.18;46.17;100000.28;2213114;39;113994;-53
2021/05/17 05:55:29;;;;;;;;;;;;;;;22.22;46.20;100006.03;2210790;39;113871;-53
2021/05/17 05:57:02;;;;;;;;;;;;;;;22.26;46.58;100009.84;2207567;39;114714;-53
2021/05/17 05:58:35;;;;;;;;;;;;;;;22.31;46.55;100010.44;2212351;39;114865;-53
2021/05/17 06:00:08;;;;;;;;;;;;;;;22.35;46.11;100016.22;2209668;39;115680;-54
2021/05/17 06:01:40;;;;;;;;;;;;;;;22.38;46.10;100009.91;2214024;39;113985;-54
2021/05/17 06:03:12;;;;;;;;;;;;;;;22.40;45.95;100016.00;2213863;39;114814;-53
2021/05/17 06:04:44;;;;;;;;;;;;;;;22.42;45.81;100017.31;2215355;39;114916;-53
2021/05/17 06:06:16;;;;;;;;;;;;;;;22.45;46.13;100019.44;2216918;39;115359;-53
2021/05/17 06:07:48;;;;;;;;;;;;;;;22.47;45.86;100027.53;2215394;39;114762;-54
2021/05/17 06:09:20;;;;;;;;;;;;;;;22.48;45.88;100027.22;2205975;39;114244;-53
2021/05/17 06:10:53;;;;;;;;;;;;;;;22.51;45.61;100025.69;2210449;39;113670;-53
2021/05/17 06:12:25;;;;;;;;;;;;;;;22.51;45.59;100032.16;2215288;39;114953;-53
2021/05/17 06:13:57;;;;;;;;;;;;;;;22.52;45.65;100033.81;2217121;39;114855;-53
2021/05/17 06:15:30;;;;;;;;;;;;;;;22.54;45.57;100033.44;2214514;39;114796;-55
2021/05/17 06:17:02;;;;;;;;;;;;;;;22.56;45.50;100036.75;2214870;39;114911;-53
2021/05/17 06:18:35;;;;;;;;;;;;;;;22.57;45.64;100044.84;2214385;39;115719;-53
2021/05/17 06:20:08;;;;;;;;;;;;;;;22.59;45.40;100052.94;2206854;39;115235;-53
2021/05/17 06:21:40;;;;;;;;;;;;;;;22.59;45.54;100042.50;2206030;39;115586;-53
2021/05/17 06:23:14;;;;;;;;;;;;;;;22.59;45.61;100044.50;2210609;39;116003;-53
2021/05/17 06:24:47;;;;;;;;;;;;;;;22.59;45.26;100044.50;2217062;39;115614;-54
2021/05/17 06:26:19;;;;;;;;;;;;;;;22.60;45.51;100046.97;2206067;39;115072;-53
2021/05/17 06:27:52;;;;;;;;;;;;;;;22.60;45.53;100049.78;2211341;39;115965;-53
2021/05/17 06:29:25;;;;;;;;;;;;;;;22.61;45.69;100051.44;2209233;39;115591;-53
2021/05/17 06:31:00;;;;;;;;;;;;;;;22.61;45.67;100056.25;2206485;39;115441;-53
2021/05/17 06:34:08;;;;;;;;;;;;;;;22.61;45.68;100057.06;2216236;39;115655;-53
2021/05/17 06:35:46;;;;;;;;;;;;;;;22.62;45.82;100060.72;2208633;39;115435;-53
2021/05/17 06:37:17;;;;;;;;;;;;;;;22.63;46.23;100065.97;2207955;39;115443;-53
2021/05/17 06:38:52;;;;;;;;;;;;;;;22.64;46.11;100072.44;2214552;39;115487;-53
2021/05/17 06:40:25;;;;;;;;;;;;;;;22.62;46.10;100075.59;2206818;39;115744;-53
2021/05/17 06:41:57;;;;;;;;;;;;;;;22.62;46.13;100075.59;2213388;39;114373;-53
2021/05/17 06:43:30;;;;;;;;;;;;;;;22.62;45.89;100072.78;2216815;39;113980;-53
2021/05/17 06:45:02;;;;;;;;;;;;;;;22.63;45.95;100077.25;2209223;39;114323;-53
2021/05/17 06:46:36;;;;;;;;;;;;;;;22.63;45.97;100084.88;2214150;39;114079;-54
2021/05/17 06:48:09;;;;;;;;;;;;;;;22.61;46.05;100085.22;2216004;39;113593;-53
2021/05/17 06:49:42;;;;;;;;;;;;;;;22.61;45.87;100085.22;2209791;39;113843;-53
2021/05/17 06:51:17;;;;;;;;;;;;;;;22.61;45.69;100090.88;2208667;39;113797;-53
2021/05/17 06:52:51;;;;;;;;;;;;;;;22.61;45.94;100095.66;2203721;39;113618;-52
2021/05/17 06:54:26;;;;;;;;;;;;;;;22.60;45.60;100097.66;2208323;39;113774;-52
2021/05/17 06:56:01;;;;;;;;;;;;;;;22.59;45.84;100098.81;2207982;39;113841;-53
2021/05/17 07:00:43;;;;;;;;;;;;;;;22.58;45.75;100107.59;2216789;39;113769;-53
2021/05/17 07:02:18;;;;;;;;;;;;;;;22.58;45.74;100116.03;2218960;39;113888;-53
2021/05/17 07:03:53;;;;;;;;;;;;;;;22.57;45.53;100106.78;2213803;39;114744;-53
2021/05/17 07:05:26;;;;;;;;;;;;;;;22.55;45.63;100117.56;2211758;39;114364;-53
2021/05/17 07:07:00;;;;;;;;;;;;;;;22.56;45.57;100121.19;2211411;39;114896;-53
2021/05/17 07:13:20;;;;;;;;;;;;;;;22.51;45.55;100129.84;2205029;39;114888;-53
2021/05/17 07:14:52;;;;;;;;;;;;;;;22.51;45.72;100125.03;2207915;39;113784;-53
2021/05/17 07:16:24;;;;;;;;;;;;;;;22.50;45.40;100131.00;2209124;39;114835;-52
2021/05/17 07:17:56;;;;;;;;;;;;;;;22.50;45.57;100136.63;2213686;39;114751;-53
2021/05/17 07:19:29;;;;;;;;;;;;;;;22.49;45.60;100133.00;2208311;39;114122;-53
2021/05/17 07:24:22;;;;;;;;;;;;;;;22.46;45.98;100142.13;2213290;39;114803;-53
2021/05/17 07:25:55;;;;;;;;;;;;;;;22.45;46.05;100140.47;2212009;39;115440;-53
2021/05/17 07:27:28;;;;;;;;;;;;;;;22.45;45.85;100139.66;2213769;39;115420;-53
2021/05/17 07:29:03;;;;;;;;;;;;;;;22.44;45.96;100141.63;2212864;39;115448;-53
2021/05/17 07:30:35;;;;;;;;;;;;;;;22.44;45.81;100143.66;2208359;39;116289;-53
2021/05/17 07:32:09;;;;;;;;;;;;;;;22.45;45.75;100148.09;2212760;39;115870;-53
2021/05/17 07:33:42;;;;;;;;;;;;;;;22.43;45.46;100156.06;2206925;39;115672;-54
2021/05/17 07:35:14;;;;;;;;;;;;;;;22.42;45.58;100158.06;2205343;39;115765;-52
2021/05/17 07:36:47;;;;;;;;;;;;;;;22.41;45.67;100161.19;2211797;39;116057;-53
2021/05/17 07:38:22;;;;;;;;;;;;;;;22.39;45.43;100161.56;2200543;39;115727;-53
2021/05/17 07:39:54;;;;;;;;;;;;;;;22.38;45.56;100161.91;2210067;39;115879;-54
2021/05/17 07:41:25;;;;;;;;;;;;;;;22.38;45.23;100167.53;2215210;39;115870;-53
2021/05/17 07:42:57;;;;;;;;;;;;;;;22.36;45.16;100170.66;2216513;39;115499;-53
2021/05/17 07:44:49;;;;;;;;;;;;;;;22.36;45.18;100167.03;2207427;39;115807;-52
2021/05/17 07:46:20;;;;;;;;;;;;;;;22.34;45.28;100173.00;2214777;39;114627;-53
2021/05/17 07:47:52;;;;;;;;;;;;;;;22.34;45.35;100172.19;2208235;39;114088;-52
2021/05/17 07:49:35;;;;;;;;;;;;;;;22.32;45.43;100175.34;2208457;39;113620;-53
2021/05/17 07:51:08;;;;;;;;;;;;;;;22.30;45.29;100177.69;2217206;39;113788;-53
2021/05/17 07:52:40;;;;;;;;;;;;;;;22.30;45.10;100177.69;2217348;39;113794;-53
2021/05/17 07:54:12;;;;;;;;;;;;;;;22.29;45.24;100183.63;2213459;39;113741;-53
2021/05/17 07:55:47;;;;;;;;;;;;;;;22.29;45.21;100180.81;2216898;39;113628;-53
2021/05/17 07:57:18;;;;;;;;;;;;;;;22.27;45.13;100186.78;2203999;39;113756;-53
2021/05/17 07:58:51;;;;;;;;;;;;;;;22.26;45.13;100189.94;2212759;39;113768;-55
2021/05/17 08:00:24;;;;;;;;;;;;;;;22.25;45.34;100189.13;2208527;39;113640;-56
2021/05/17 08:01:56;;;;;;;;;;;;;;;22.23;45.19;100193.41;2212986;39;114348;-55
2021/05/17 08:03:28;;;;;;;;;;;;;;;22.25;45.08;100199.56;2216251;39;114149;-55
2021/05/17 08:05:03;;;;;;;;;;;;;;;22.23;45.09;100205.50;2216298;39;113904;-53
2021/05/17 08:06:35;;;;;;;;;;;;;;;22.21;45.07;100196.59;2211259;39;113735;-53
2021/05/17 08:08:09;;;;;;;;;;;;;;;22.20;45.51;100199.72;2216049;39;113943;-52
2021/05/17 08:09:44;;;;;;;;;;;;;;;22.21;45.84;100207.03;2205606;39;113663;-53
2021/05/17 08:11:16;;;;;;;;;;;;;;;22.16;45.80;100203.22;2209734;39;114756;-53
2021/05/17 08:12:47;;;;;;;;;;;;;;;22.15;45.67;100210.03;2208034;39;114982;-53
2021/05/17 08:14:19;;;;;;;;;;;;;;;22.13;45.56;100217.13;2213782;39;114817;-54
2021/05/17 08:15:51;;;;;;;;;;;;;;;22.13;45.94;100215.16;2216292;39;115030;-53
2021/05/17 08:17:23;;;;;;;;;;;;;;;22.12;45.78;100218.31;2217519;39;114782;-55
2021/05/17 08:18:55;;;;;;;;;;;;;;;22.10;45.86;100220.63;2216850;39;113750;-56
2021/05/17 08:20:26;;;;;;;;;;;;;;;22.09;45.69;100224.59;2214326;39;113831;-53
2021/05/17 08:21:59;;;;;;;;;;;;;;;22.08;45.92;100225.75;2213738;39;114257;-53
2021/05/17 08:23:31;;;;;;;;;;;;;;;22.07;45.90;100221.31;2214228;39;115065;-52
2021/05/17 08:25:04;;;;;;;;;;;;;;;22.06;46.13;100231.72;2207088;39;114729;-53
2021/05/17 08:26:35;;;;;;;;;;;;;;;22.05;46.19;100230.06;2215311;39;114756;-53
2021/05/17 08:28:08;;;;;;;;;;;;;;;22.03;46.19;100226.75;2214456;39;114805;-53